sensor_id;sensor_type;location;lat;lon;timestamp;P1;durP1;ratioP1;P2;durP2;ratioP2
8421;SDS011;4248;48.196;10.924;2023-12-22T00:00:37;2.37;;;0.90;;
8421;SDS011;4248;48.196;10.924;2023-12-22T00:03:03;8.23;;;1.10;;
8421;SDS011;4248;48.196;10.924;2023-12-22T00:05:29;2.40;;;0.77;;
8421;SDS011;4248;48.196;10.924;2023-12-22T00:07:54;3.27;;;0.70;;
8421;SDS011;4248;48.196;10.924;2023-12-22T00:10:20;1.50;;;0.80;;
8421;SDS011;4248;48.196;10.924;2023-12-22T00:12:46;1.60;;;0.70;;
8421;SDS011;4248;48.196;10.924;2023-12-22T00:15:11;1.43;;;0.60;;
8421;SDS011;4248;48.196;10.924;2023-12-22T00:17:37;1.30;;;0.60;;
8421;SDS011;4248;48.196;10.924;2023-12-22T00:20:02;1.67;;;0.70;;
8421;SDS011;4248;48.196;10.924;2023-12-22T00:22:29;2.87;;;0.80;;
8421;SDS011;4248;48.196;10.924;2023-12-22T00:24:55;1.30;;;0.70;;
8421;SDS011;4248;48.196;10.924;2023-12-22T00:27:21;2.00;;;0.70;;
8421;SDS011;4248;48.196;10.924;2023-12-22T00:29:46;1.83;;;0.70;;
8421;SDS011;4248;48.196;10.924;2023-12-22T00:32:12;4.77;;;0.63;;
8421;SDS011;4248;48.196;10.924;2023-12-22T00:34:37;2.83;;;1.00;;
8421;SDS011;4248;48.196;10.924;2023-12-22T00:37:03;4.97;;;0.97;;
8421;SDS011;4248;48.196;10.924;2023-12-22T00:39:29;4.23;;;0.90;;
8421;SDS011;4248;48.196;10.924;2023-12-22T00:41:55;3.03;;;0.80;;
8421;SDS011;4248;48.196;10.924;2023-12-22T00:44:21;2.27;;;0.70;;
8421;SDS011;4248;48.196;10.924;2023-12-22T00:46:47;1.73;;;0.80;;
8421;SDS011;4248;48.196;10.924;2023-12-22T00:49:12;2.00;;;0.70;;
8421;SDS011;4248;48.196;10.924;2023-12-22T00:51:38;2.60;;;0.70;;
8421;SDS011;4248;48.196;10.924;2023-12-22T00:54:03;1.87;;;1.00;;
8421;SDS011;4248;48.196;10.924;2023-12-22T00:56:29;3.23;;;1.07;;
8421;SDS011;4248;48.196;10.924;2023-12-22T00:58:54;1.77;;;0.70;;
8421;SDS011;4248;48.196;10.924;2023-12-22T01:01:20;1.33;;;0.73;;
8421;SDS011;4248;48.196;10.924;2023-12-22T01:03:46;1.40;;;0.80;;
8421;SDS011;4248;48.196;10.924;2023-12-22T01:06:11;3.07;;;0.90;;
8421;SDS011;4248;48.196;10.924;2023-12-22T01:08:37;3.00;;;0.80;;
8421;SDS011;4248;48.196;10.924;2023-12-22T01:11:03;2.13;;;0.70;;
8421;SDS011;4248;48.196;10.924;2023-12-22T01:13:29;1.30;;;0.90;;
8421;SDS011;4248;48.196;10.924;2023-12-22T01:15:54;1.60;;;0.73;;
8421;SDS011;4248;48.196;10.924;2023-12-22T01:18:20;2.07;;;0.77;;
8421;SDS011;4248;48.196;10.924;2023-12-22T01:20:45;2.00;;;0.80;;
8421;SDS011;4248;48.196;10.924;2023-12-22T01:23:11;1.50;;;0.70;;
8421;SDS011;4248;48.196;10.924;2023-12-22T01:25:40;2.60;;;0.60;;
8421;SDS011;4248;48.196;10.924;2023-12-22T01:28:08;1.47;;;0.70;;
8421;SDS011;4248;48.196;10.924;2023-12-22T01:30:33;1.63;;;0.70;;
8421;SDS011;4248;48.196;10.924;2023-12-22T01:32:59;1.33;;;0.70;;
8421;SDS011;4248;48.196;10.924;2023-12-22T01:35:24;1.63;;;0.70;;
8421;SDS011;4248;48.196;10.924;2023-12-22T01:37:50;2.20;;;0.87;;
8421;SDS011;4248;48.196;10.924;2023-12-22T01:40:16;1.40;;;0.70;;
8421;SDS011;4248;48.196;10.924;2023-12-22T01:42:42;3.43;;;0.77;;
8421;SDS011;4248;48.196;10.924;2023-12-22T01:45:07;1.00;;;0.60;;
8421;SDS011;4248;48.196;10.924;2023-12-22T01:47:33;1.67;;;0.67;;
8421;SDS011;4248;48.196;10.924;2023-12-22T01:50:00;2.07;;;0.70;;
8421;SDS011;4248;48.196;10.924;2023-12-22T01:52:26;2.07;;;1.00;;
8421;SDS011;4248;48.196;10.924;2023-12-22T01:54:52;1.17;;;0.60;;
8421;SDS011;4248;48.196;10.924;2023-12-22T01:57:20;2.20;;;0.60;;
8421;SDS011;4248;48.196;10.924;2023-12-22T01:59:46;1.00;;;0.60;;
8421;SDS011;4248;48.196;10.924;2023-12-22T02:02:13;1.20;;;0.60;;
8421;SDS011;4248;48.196;10.924;2023-12-22T02:04:39;1.10;;;0.50;;
8421;SDS011;4248;48.196;10.924;2023-12-22T02:07:05;0.90;;;0.60;;
8421;SDS011;4248;48.196;10.924;2023-12-22T02:09:34;1.20;;;0.70;;
8421;SDS011;4248;48.196;10.924;2023-12-22T02:12:00;1.00;;;0.57;;
8421;SDS011;4248;48.196;10.924;2023-12-22T02:14:26;4.20;;;0.60;;
8421;SDS011;4248;48.196;10.924;2023-12-22T02:16:53;0.90;;;0.60;;
8421;SDS011;4248;48.196;10.924;2023-12-22T02:22:08;0.90;;;0.50;;
8421;SDS011;4248;48.196;10.924;2023-12-22T02:24:34;1.10;;;0.60;;
8421;SDS011;4248;48.196;10.924;2023-12-22T02:27:44;1.07;;;0.50;;
8421;SDS011;4248;48.196;10.924;2023-12-22T02:30:12;1.00;;;0.60;;
8421;SDS011;4248;48.196;10.924;2023-12-22T02:32:43;1.30;;;0.70;;
8421;SDS011;4248;48.196;10.924;2023-12-22T02:35:11;0.97;;;0.60;;
8421;SDS011;4248;48.196;10.924;2023-12-22T02:37:41;0.80;;;0.50;;
8421;SDS011;4248;48.196;10.924;2023-12-22T02:40:08;1.63;;;0.70;;
8421;SDS011;4248;48.196;10.924;2023-12-22T02:42:35;1.37;;;0.60;;
8421;SDS011;4248;48.196;10.924;2023-12-22T02:45:03;0.90;;;0.55;;
8421;SDS011;4248;48.196;10.924;2023-12-22T02:47:29;0.85;;;0.50;;
8421;SDS011;4248;48.196;10.924;2023-12-22T02:49:57;0.80;;;0.50;;
8421;SDS011;4248;48.196;10.924;2023-12-22T02:52:22;1.03;;;0.60;;
8421;SDS011;4248;48.196;10.924;2023-12-22T02:54:48;1.57;;;0.67;;
8421;SDS011;4248;48.196;10.924;2023-12-22T02:57:14;1.17;;;0.60;;
8421;SDS011;4248;48.196;10.924;2023-12-22T02:59:39;0.90;;;0.57;;
8421;SDS011;4248;48.196;10.924;2023-12-22T03:02:05;1.43;;;0.60;;
8421;SDS011;4248;48.196;10.924;2023-12-22T03:04:30;1.00;;;0.60;;
8421;SDS011;4248;48.196;10.924;2023-12-22T03:06:56;2.03;;;0.70;;
8421;SDS011;4248;48.196;10.924;2023-12-22T03:09:21;1.00;;;0.60;;
8421;SDS011;4248;48.196;10.924;2023-12-22T03:11:47;1.90;;;0.80;;
8421;SDS011;4248;48.196;10.924;2023-12-22T03:14:13;1.47;;;0.70;;
8421;SDS011;4248;48.196;10.924;2023-12-22T03:16:39;4.20;;;1.17;;
8421;SDS011;4248;48.196;10.924;2023-12-22T03:19:06;1.30;;;0.70;;
8421;SDS011;4248;48.196;10.924;2023-12-22T03:21:32;1.87;;;0.70;;
8421;SDS011;4248;48.196;10.924;2023-12-22T03:23:57;2.20;;;0.70;;
8421;SDS011;4248;48.196;10.924;2023-12-22T03:26:23;1.23;;;0.60;;
8421;SDS011;4248;48.196;10.924;2023-12-22T03:28:51;1.33;;;0.70;;
8421;SDS011;4248;48.196;10.924;2023-12-22T03:31:16;3.20;;;0.80;;
8421;SDS011;4248;48.196;10.924;2023-12-22T03:33:42;2.90;;;0.80;;
8421;SDS011;4248;48.196;10.924;2023-12-22T03:36:07;1.40;;;0.60;;
8421;SDS011;4248;48.196;10.924;2023-12-22T03:38:33;2.20;;;0.70;;
8421;SDS011;4248;48.196;10.924;2023-12-22T03:40:58;1.40;;;0.60;;
8421;SDS011;4248;48.196;10.924;2023-12-22T03:43:24;1.27;;;0.80;;
8421;SDS011;4248;48.196;10.924;2023-12-22T03:45:50;2.50;;;0.70;;
8421;SDS011;4248;48.196;10.924;2023-12-22T03:48:15;1.10;;;0.60;;
8421;SDS011;4248;48.196;10.924;2023-12-22T03:50:41;4.40;;;0.70;;
8421;SDS011;4248;48.196;10.924;2023-12-22T03:53:06;1.93;;;0.80;;
8421;SDS011;4248;48.196;10.924;2023-12-22T03:55:32;1.90;;;0.73;;
8421;SDS011;4248;48.196;10.924;2023-12-22T03:57:57;1.73;;;0.93;;
8421;SDS011;4248;48.196;10.924;2023-12-22T04:00:23;2.60;;;0.90;;
8421;SDS011;4248;48.196;10.924;2023-12-22T04:02:48;1.20;;;0.70;;
8421;SDS011;4248;48.196;10.924;2023-12-22T04:05:14;3.53;;;0.80;;
8421;SDS011;4248;48.196;10.924;2023-12-22T04:07:39;4.50;;;1.67;;
8421;SDS011;4248;48.196;10.924;2023-12-22T04:10:05;2.13;;;0.60;;
8421;SDS011;4248;48.196;10.924;2023-12-22T04:12:31;2.83;;;0.73;;
8421;SDS011;4248;48.196;10.924;2023-12-22T04:14:57;1.53;;;0.80;;
8421;SDS011;4248;48.196;10.924;2023-12-22T04:17:22;1.20;;;0.70;;
8421;SDS011;4248;48.196;10.924;2023-12-22T04:19:48;2.23;;;1.03;;
8421;SDS011;4248;48.196;10.924;2023-12-22T04:22:13;2.67;;;1.00;;
8421;SDS011;4248;48.196;10.924;2023-12-22T04:24:39;1.73;;;0.70;;
8421;SDS011;4248;48.196;10.924;2023-12-22T04:27:04;5.47;;;1.00;;
8421;SDS011;4248;48.196;10.924;2023-12-22T04:29:30;1.50;;;0.70;;
8421;SDS011;4248;48.196;10.924;2023-12-22T04:31:55;3.77;;;0.80;;
8421;SDS011;4248;48.196;10.924;2023-12-22T04:34:21;4.10;;;1.23;;
8421;SDS011;4248;48.196;10.924;2023-12-22T04:36:46;5.23;;;0.80;;
8421;SDS011;4248;48.196;10.924;2023-12-22T04:39:12;3.20;;;1.00;;
8421;SDS011;4248;48.196;10.924;2023-12-22T04:41:37;1.60;;;0.67;;
8421;SDS011;4248;48.196;10.924;2023-12-22T04:44:03;2.70;;;0.83;;
8421;SDS011;4248;48.196;10.924;2023-12-22T04:46:29;1.83;;;0.80;;
8421;SDS011;4248;48.196;10.924;2023-12-22T04:48:58;3.20;;;0.67;;
8421;SDS011;4248;48.196;10.924;2023-12-22T04:51:23;3.63;;;0.87;;
8421;SDS011;4248;48.196;10.924;2023-12-22T04:53:49;1.50;;;0.70;;
8421;SDS011;4248;48.196;10.924;2023-12-22T04:56:14;3.53;;;0.70;;
8421;SDS011;4248;48.196;10.924;2023-12-22T04:58:40;1.20;;;0.60;;
8421;SDS011;4248;48.196;10.924;2023-12-22T05:01:06;1.70;;;0.70;;
8421;SDS011;4248;48.196;10.924;2023-12-22T05:03:31;2.30;;;0.77;;
8421;SDS011;4248;48.196;10.924;2023-12-22T05:05:57;2.10;;;0.70;;
8421;SDS011;4248;48.196;10.924;2023-12-22T05:08:23;7.80;;;0.90;;
8421;SDS011;4248;48.196;10.924;2023-12-22T05:10:48;3.50;;;0.90;;
8421;SDS011;4248;48.196;10.924;2023-12-22T05:13:14;1.27;;;0.60;;
8421;SDS011;4248;48.196;10.924;2023-12-22T05:15:39;3.37;;;0.70;;
8421;SDS011;4248;48.196;10.924;2023-12-22T05:18:05;5.03;;;1.20;;
8421;SDS011;4248;48.196;10.924;2023-12-22T05:20:30;1.30;;;0.80;;
8421;SDS011;4248;48.196;10.924;2023-12-22T05:22:56;1.60;;;0.83;;
8421;SDS011;4248;48.196;10.924;2023-12-22T05:25:21;3.93;;;0.73;;
8421;SDS011;4248;48.196;10.924;2023-12-22T05:27:47;5.83;;;1.17;;
8421;SDS011;4248;48.196;10.924;2023-12-22T05:30:13;3.17;;;0.87;;
8421;SDS011;4248;48.196;10.924;2023-12-22T05:32:38;2.90;;;0.90;;
8421;SDS011;4248;48.196;10.924;2023-12-22T05:35:04;1.13;;;0.80;;
8421;SDS011;4248;48.196;10.924;2023-12-22T05:37:30;9.97;;;1.10;;
8421;SDS011;4248;48.196;10.924;2023-12-22T05:39:55;6.77;;;0.70;;
8421;SDS011;4248;48.196;10.924;2023-12-22T05:42:21;2.50;;;0.97;;
8421;SDS011;4248;48.196;10.924;2023-12-22T05:44:47;2.93;;;0.90;;
8421;SDS011;4248;48.196;10.924;2023-12-22T05:47:14;2.03;;;0.90;;
8421;SDS011;4248;48.196;10.924;2023-12-22T05:49:41;3.30;;;0.80;;
8421;SDS011;4248;48.196;10.924;2023-12-22T05:52:06;4.40;;;0.80;;
8421;SDS011;4248;48.196;10.924;2023-12-22T05:54:34;3.50;;;1.13;;
8421;SDS011;4248;48.196;10.924;2023-12-22T05:56:59;1.60;;;0.83;;
8421;SDS011;4248;48.196;10.924;2023-12-22T05:59:25;4.30;;;0.90;;
8421;SDS011;4248;48.196;10.924;2023-12-22T06:01:55;2.17;;;0.90;;
8421;SDS011;4248;48.196;10.924;2023-12-22T06:04:21;2.40;;;1.33;;
8421;SDS011;4248;48.196;10.924;2023-12-22T06:06:46;4.50;;;0.93;;
8421;SDS011;4248;48.196;10.924;2023-12-22T06:09:12;1.63;;;0.77;;
8421;SDS011;4248;48.196;10.924;2023-12-22T06:11:38;2.73;;;1.07;;
8421;SDS011;4248;48.196;10.924;2023-12-22T06:14:05;1.70;;;0.90;;
8421;SDS011;4248;48.196;10.924;2023-12-22T06:16:31;2.90;;;1.17;;
8421;SDS011;4248;48.196;10.924;2023-12-22T06:18:56;10.87;;;2.93;;
8421;SDS011;4248;48.196;10.924;2023-12-22T06:21:22;2.40;;;1.00;;
8421;SDS011;4248;48.196;10.924;2023-12-22T06:23:47;1.77;;;0.90;;
8421;SDS011;4248;48.196;10.924;2023-12-22T06:26:13;1.13;;;0.67;;
8421;SDS011;4248;48.196;10.924;2023-12-22T06:28:38;2.00;;;1.10;;
8421;SDS011;4248;48.196;10.924;2023-12-22T06:31:08;4.23;;;1.33;;
8421;SDS011;4248;48.196;10.924;2023-12-22T06:33:43;2.20;;;0.77;;
8421;SDS011;4248;48.196;10.924;2023-12-22T06:36:17;4.23;;;1.00;;
8421;SDS011;4248;48.196;10.924;2023-12-22T06:38:49;1.57;;;0.80;;
8421;SDS011;4248;48.196;10.924;2023-12-22T06:41:22;4.47;;;0.87;;
8421;SDS011;4248;48.196;10.924;2023-12-22T06:43:49;3.23;;;1.00;;
8421;SDS011;4248;48.196;10.924;2023-12-22T06:46:16;2.10;;;1.10;;
8421;SDS011;4248;48.196;10.924;2023-12-22T06:48:45;5.40;;;0.97;;
8421;SDS011;4248;48.196;10.924;2023-12-22T06:51:29;3.13;;;0.90;;
8421;SDS011;4248;48.196;10.924;2023-12-22T06:53:56;5.40;;;0.90;;
8421;SDS011;4248;48.196;10.924;2023-12-22T06:58:50;9.07;;;1.67;;
8421;SDS011;4248;48.196;10.924;2023-12-22T07:01:22;4.07;;;1.13;;
8421;SDS011;4248;48.196;10.924;2023-12-22T07:03:58;2.47;;;1.00;;
8421;SDS011;4248;48.196;10.924;2023-12-22T07:06:25;4.93;;;1.10;;
8421;SDS011;4248;48.196;10.924;2023-12-22T07:11:36;3.33;;;0.80;;
8421;SDS011;4248;48.196;10.924;2023-12-22T07:14:12;5.93;;;1.33;;
8421;SDS011;4248;48.196;10.924;2023-12-22T07:16:37;6.20;;;1.50;;
8421;SDS011;4248;48.196;10.924;2023-12-22T07:19:03;4.80;;;1.10;;
8421;SDS011;4248;48.196;10.924;2023-12-22T07:21:29;5.10;;;1.53;;
8421;SDS011;4248;48.196;10.924;2023-12-22T07:23:55;4.43;;;1.03;;
8421;SDS011;4248;48.196;10.924;2023-12-22T07:26:21;11.50;;;1.70;;
8421;SDS011;4248;48.196;10.924;2023-12-22T07:28:49;2.43;;;1.30;;
8421;SDS011;4248;48.196;10.924;2023-12-22T07:31:15;4.40;;;1.00;;
8421;SDS011;4248;48.196;10.924;2023-12-22T07:33:40;2.80;;;1.33;;
8421;SDS011;4248;48.196;10.924;2023-12-22T07:36:06;1.70;;;1.03;;
8421;SDS011;4248;48.196;10.924;2023-12-22T07:38:35;3.33;;;0.87;;
8421;SDS011;4248;48.196;10.924;2023-12-22T07:41:01;3.83;;;1.13;;
8421;SDS011;4248;48.196;10.924;2023-12-22T07:43:27;5.70;;;1.10;;
8421;SDS011;4248;48.196;10.924;2023-12-22T07:45:54;9.40;;;1.27;;
8421;SDS011;4248;48.196;10.924;2023-12-22T07:48:20;5.43;;;1.60;;
8421;SDS011;4248;48.196;10.924;2023-12-22T07:50:45;5.83;;;1.20;;
8421;SDS011;4248;48.196;10.924;2023-12-22T07:53:11;3.73;;;1.10;;
8421;SDS011;4248;48.196;10.924;2023-12-22T07:55:37;5.23;;;1.30;;
8421;SDS011;4248;48.196;10.924;2023-12-22T07:58:03;2.97;;;1.13;;
8421;SDS011;4248;48.196;10.924;2023-12-22T08:00:29;4.23;;;1.17;;
8421;SDS011;4248;48.196;10.924;2023-12-22T08:02:55;3.37;;;1.03;;
8421;SDS011;4248;48.196;10.924;2023-12-22T08:05:21;5.10;;;1.43;;
8421;SDS011;4248;48.196;10.924;2023-12-22T08:07:46;1.67;;;1.00;;
8421;SDS011;4248;48.196;10.924;2023-12-22T08:10:12;5.07;;;1.03;;
8421;SDS011;4248;48.196;10.924;2023-12-22T08:12:37;4.10;;;1.00;;
8421;SDS011;4248;48.196;10.924;2023-12-22T08:15:03;3.43;;;0.80;;
8421;SDS011;4248;48.196;10.924;2023-12-22T08:17:29;3.27;;;1.03;;
8421;SDS011;4248;48.196;10.924;2023-12-22T08:19:54;1.87;;;0.80;;
8421;SDS011;4248;48.196;10.924;2023-12-22T08:22:21;7.83;;;0.90;;
8421;SDS011;4248;48.196;10.924;2023-12-22T08:24:47;5.33;;;1.17;;
8421;SDS011;4248;48.196;10.924;2023-12-22T08:27:13;5.63;;;1.10;;
8421;SDS011;4248;48.196;10.924;2023-12-22T08:29:39;4.97;;;1.53;;
8421;SDS011;4248;48.196;10.924;2023-12-22T08:32:04;6.90;;;2.60;;
8421;SDS011;4248;48.196;10.924;2023-12-22T08:34:30;6.47;;;1.53;;
8421;SDS011;4248;48.196;10.924;2023-12-22T08:36:56;3.47;;;1.23;;
8421;SDS011;4248;48.196;10.924;2023-12-22T08:39:21;5.80;;;1.80;;
8421;SDS011;4248;48.196;10.924;2023-12-22T08:41:49;7.80;;;1.60;;
8421;SDS011;4248;48.196;10.924;2023-12-22T08:44:14;6.47;;;1.30;;
8421;SDS011;4248;48.196;10.924;2023-12-22T08:46:40;4.37;;;1.30;;
8421;SDS011;4248;48.196;10.924;2023-12-22T08:49:06;3.67;;;1.27;;
8421;SDS011;4248;48.196;10.924;2023-12-22T08:51:32;6.77;;;2.30;;
8421;SDS011;4248;48.196;10.924;2023-12-22T08:53:59;5.57;;;1.50;;
8421;SDS011;4248;48.196;10.924;2023-12-22T08:56:25;5.37;;;1.20;;
8421;SDS011;4248;48.196;10.924;2023-12-22T08:58:51;7.77;;;1.30;;
8421;SDS011;4248;48.196;10.924;2023-12-22T09:01:18;10.53;;;1.93;;
8421;SDS011;4248;48.196;10.924;2023-12-22T09:03:44;4.33;;;1.23;;
8421;SDS011;4248;48.196;10.924;2023-12-22T09:06:16;11.07;;;1.60;;
8421;SDS011;4248;48.196;10.924;2023-12-22T09:08:45;2.27;;;1.00;;
8421;SDS011;4248;48.196;10.924;2023-12-22T09:11:11;3.13;;;1.20;;
8421;SDS011;4248;48.196;10.924;2023-12-22T09:13:37;4.80;;;1.57;;
8421;SDS011;4248;48.196;10.924;2023-12-22T09:16:04;5.93;;;1.30;;
8421;SDS011;4248;48.196;10.924;2023-12-22T09:18:30;2.93;;;1.00;;
8421;SDS011;4248;48.196;10.924;2023-12-22T09:20:56;10.70;;;1.77;;
8421;SDS011;4248;48.196;10.924;2023-12-22T09:23:22;11.17;;;1.37;;
8421;SDS011;4248;48.196;10.924;2023-12-22T09:25:48;4.00;;;1.20;;
8421;SDS011;4248;48.196;10.924;2023-12-22T09:28:14;2.90;;;0.70;;
8421;SDS011;4248;48.196;10.924;2023-12-22T09:30:39;2.20;;;0.93;;
8421;SDS011;4248;48.196;10.924;2023-12-22T09:33:05;1.70;;;0.70;;
8421;SDS011;4248;48.196;10.924;2023-12-22T09:35:30;1.63;;;0.70;;
8421;SDS011;4248;48.196;10.924;2023-12-22T09:37:56;2.40;;;0.70;;
8421;SDS011;4248;48.196;10.924;2023-12-22T09:40:21;2.93;;;0.90;;
8421;SDS011;4248;48.196;10.924;2023-12-22T09:42:47;2.57;;;1.00;;
8421;SDS011;4248;48.196;10.924;2023-12-22T09:45:13;3.43;;;0.83;;
8421;SDS011;4248;48.196;10.924;2023-12-22T09:47:43;3.03;;;0.87;;
8421;SDS011;4248;48.196;10.924;2023-12-22T09:50:09;3.90;;;0.93;;
8421;SDS011;4248;48.196;10.924;2023-12-22T09:52:35;3.40;;;1.00;;
8421;SDS011;4248;48.196;10.924;2023-12-22T09:55:02;1.03;;;0.70;;
8421;SDS011;4248;48.196;10.924;2023-12-22T09:57:29;2.60;;;1.00;;
8421;SDS011;4248;48.196;10.924;2023-12-22T09:59:56;6.83;;;1.83;;
8421;SDS011;4248;48.196;10.924;2023-12-22T10:02:24;3.37;;;1.30;;
8421;SDS011;4248;48.196;10.924;2023-12-22T10:04:51;6.80;;;1.40;;
8421;SDS011;4248;48.196;10.924;2023-12-22T10:07:17;2.70;;;1.23;;
8421;SDS011;4248;48.196;10.924;2023-12-22T10:09:44;5.43;;;1.63;;
8421;SDS011;4248;48.196;10.924;2023-12-22T10:12:12;2.20;;;1.17;;
8421;SDS011;4248;48.196;10.924;2023-12-22T10:14:39;5.80;;;1.60;;
8421;SDS011;4248;48.196;10.924;2023-12-22T10:17:06;6.43;;;1.67;;
8421;SDS011;4248;48.196;10.924;2023-12-22T10:19:32;9.00;;;1.83;;
8421;SDS011;4248;48.196;10.924;2023-12-22T10:21:57;11.40;;;1.57;;
8421;SDS011;4248;48.196;10.924;2023-12-22T10:27:08;4.40;;;1.10;;
8421;SDS011;4248;48.196;10.924;2023-12-22T10:29:40;2.70;;;1.10;;
8421;SDS011;4248;48.196;10.924;2023-12-22T10:32:06;3.50;;;1.10;;
8421;SDS011;4248;48.196;10.924;2023-12-22T10:34:33;4.07;;;1.00;;
8421;SDS011;4248;48.196;10.924;2023-12-22T10:36:59;2.40;;;0.90;;
8421;SDS011;4248;48.196;10.924;2023-12-22T10:39:28;2.37;;;1.00;;
8421;SDS011;4248;48.196;10.924;2023-12-22T10:41:54;4.87;;;1.70;;
8421;SDS011;4248;48.196;10.924;2023-12-22T10:44:23;8.20;;;2.23;;
8421;SDS011;4248;48.196;10.924;2023-12-22T10:46:50;17.67;;;5.93;;
8421;SDS011;4248;48.196;10.924;2023-12-22T10:49:16;23.40;;;8.57;;
8421;SDS011;4248;48.196;10.924;2023-12-22T10:51:42;30.43;;;9.40;;
8421;SDS011;4248;48.196;10.924;2023-12-22T10:54:07;3.00;;;1.47;;
8421;SDS011;4248;48.196;10.924;2023-12-22T10:56:33;4.93;;;1.97;;
8421;SDS011;4248;48.196;10.924;2023-12-22T10:58:59;6.60;;;2.27;;
8421;SDS011;4248;48.196;10.924;2023-12-22T11:01:29;3.17;;;1.17;;
8421;SDS011;4248;48.196;10.924;2023-12-22T11:03:57;2.97;;;1.00;;
8421;SDS011;4248;48.196;10.924;2023-12-22T11:06:26;4.10;;;1.50;;
8421;SDS011;4248;48.196;10.924;2023-12-22T11:08:54;5.47;;;1.33;;
8421;SDS011;4248;48.196;10.924;2023-12-22T11:11:35;3.03;;;0.70;;
8421;SDS011;4248;48.196;10.924;2023-12-22T11:14:03;4.57;;;1.20;;
8421;SDS011;4248;48.196;10.924;2023-12-22T11:16:30;3.33;;;1.20;;
8421;SDS011;4248;48.196;10.924;2023-12-22T11:18:59;1.67;;;0.80;;
8421;SDS011;4248;48.196;10.924;2023-12-22T11:21:25;4.93;;;1.30;;
8421;SDS011;4248;48.196;10.924;2023-12-22T11:23:52;4.90;;;1.10;;
8421;SDS011;4248;48.196;10.924;2023-12-22T11:26:19;2.33;;;0.97;;
8421;SDS011;4248;48.196;10.924;2023-12-22T11:28:57;2.53;;;1.10;;
8421;SDS011;4248;48.196;10.924;2023-12-22T11:31:24;4.33;;;1.30;;
8421;SDS011;4248;48.196;10.924;2023-12-22T11:33:52;3.23;;;1.20;;
8421;SDS011;4248;48.196;10.924;2023-12-22T11:36:20;3.70;;;0.97;;
8421;SDS011;4248;48.196;10.924;2023-12-22T11:38:47;2.70;;;1.07;;
8421;SDS011;4248;48.196;10.924;2023-12-22T11:41:24;4.97;;;1.13;;
8421;SDS011;4248;48.196;10.924;2023-12-22T11:43:54;6.67;;;1.10;;
8421;SDS011;4248;48.196;10.924;2023-12-22T11:46:25;3.10;;;1.00;;
8421;SDS011;4248;48.196;10.924;2023-12-22T11:48:51;2.83;;;1.10;;
8421;SDS011;4248;48.196;10.924;2023-12-22T11:51:17;3.40;;;1.10;;
8421;SDS011;4248;48.196;10.924;2023-12-22T11:53:44;2.73;;;1.10;;
8421;SDS011;4248;48.196;10.924;2023-12-22T11:56:10;2.60;;;1.13;;
8421;SDS011;4248;48.196;10.924;2023-12-22T11:58:44;3.10;;;0.93;;
8421;SDS011;4248;48.196;10.924;2023-12-22T12:01:19;1.93;;;1.03;;
8421;SDS011;4248;48.196;10.924;2023-12-22T12:08:55;6.57;;;1.60;;
8421;SDS011;4248;48.196;10.924;2023-12-22T12:11:22;7.17;;;1.20;;
8421;SDS011;4248;48.196;10.924;2023-12-22T12:13:49;2.63;;;1.10;;
8421;SDS011;4248;48.196;10.924;2023-12-22T12:16:19;5.60;;;1.20;;
8421;SDS011;4248;48.196;10.924;2023-12-22T12:18:49;4.47;;;1.20;;
8421;SDS011;4248;48.196;10.924;2023-12-22T12:21:15;1.50;;;0.90;;
8421;SDS011;4248;48.196;10.924;2023-12-22T12:23:41;4.20;;;1.37;;
8421;SDS011;4248;48.196;10.924;2023-12-22T12:26:07;2.80;;;0.97;;
8421;SDS011;4248;48.196;10.924;2023-12-22T12:28:34;4.73;;;1.20;;
8421;SDS011;4248;48.196;10.924;2023-12-22T12:31:05;4.60;;;1.30;;
8421;SDS011;4248;48.196;10.924;2023-12-22T12:33:31;1.93;;;0.90;;
8421;SDS011;4248;48.196;10.924;2023-12-22T12:35:58;2.87;;;0.97;;
8421;SDS011;4248;48.196;10.924;2023-12-22T12:38:35;5.13;;;1.13;;
8421;SDS011;4248;48.196;10.924;2023-12-22T12:41:18;4.67;;;1.23;;
8421;SDS011;4248;48.196;10.924;2023-12-22T12:43:54;4.67;;;1.40;;
8421;SDS011;4248;48.196;10.924;2023-12-22T12:46:21;5.80;;;1.90;;
8421;SDS011;4248;48.196;10.924;2023-12-22T12:48:47;4.30;;;1.00;;
8421;SDS011;4248;48.196;10.924;2023-12-22T12:51:12;3.73;;;1.17;;
8421;SDS011;4248;48.196;10.924;2023-12-22T12:53:38;5.93;;;1.23;;
8421;SDS011;4248;48.196;10.924;2023-12-22T12:56:04;4.20;;;1.23;;
8421;SDS011;4248;48.196;10.924;2023-12-22T12:58:30;1.93;;;0.90;;
8421;SDS011;4248;48.196;10.924;2023-12-22T13:01:04;6.33;;;1.33;;
8421;SDS011;4248;48.196;10.924;2023-12-22T13:03:51;5.20;;;1.27;;
8421;SDS011;4248;48.196;10.924;2023-12-22T13:06:19;4.73;;;1.20;;
8421;SDS011;4248;48.196;10.924;2023-12-22T13:08:49;8.00;;;1.30;;
8421;SDS011;4248;48.196;10.924;2023-12-22T13:11:19;3.07;;;0.87;;
8421;SDS011;4248;48.196;10.924;2023-12-22T13:13:46;7.27;;;1.63;;
8421;SDS011;4248;48.196;10.924;2023-12-22T13:16:12;3.67;;;1.37;;
8421;SDS011;4248;48.196;10.924;2023-12-22T13:18:37;2.90;;;1.10;;
8421;SDS011;4248;48.196;10.924;2023-12-22T13:21:03;4.40;;;1.50;;
8421;SDS011;4248;48.196;10.924;2023-12-22T13:23:29;2.90;;;1.03;;
8421;SDS011;4248;48.196;10.924;2023-12-22T13:25:55;3.80;;;1.20;;
8421;SDS011;4248;48.196;10.924;2023-12-22T13:28:27;3.10;;;1.30;;
8421;SDS011;4248;48.196;10.924;2023-12-22T13:30:53;3.50;;;1.37;;
8421;SDS011;4248;48.196;10.924;2023-12-22T13:33:19;8.10;;;1.90;;
8421;SDS011;4248;48.196;10.924;2023-12-22T13:35:44;3.80;;;1.47;;
8421;SDS011;4248;48.196;10.924;2023-12-22T13:38:12;3.87;;;1.30;;
8421;SDS011;4248;48.196;10.924;2023-12-22T13:40:38;4.43;;;1.10;;
8421;SDS011;4248;48.196;10.924;2023-12-22T13:43:04;3.27;;;1.00;;
8421;SDS011;4248;48.196;10.924;2023-12-22T13:45:32;3.43;;;0.90;;
8421;SDS011;4248;48.196;10.924;2023-12-22T13:47:57;2.87;;;1.13;;
8421;SDS011;4248;48.196;10.924;2023-12-22T13:50:23;2.20;;;0.80;;
8421;SDS011;4248;48.196;10.924;2023-12-22T13:52:49;1.90;;;1.00;;
8421;SDS011;4248;48.196;10.924;2023-12-22T13:55:16;5.20;;;0.90;;
8421;SDS011;4248;48.196;10.924;2023-12-22T13:57:42;2.03;;;1.20;;
8421;SDS011;4248;48.196;10.924;2023-12-22T14:02:49;2.00;;;1.00;;
8421;SDS011;4248;48.196;10.924;2023-12-22T14:05:15;3.60;;;1.10;;
8421;SDS011;4248;48.196;10.924;2023-12-22T14:07:48;2.37;;;1.13;;
8421;SDS011;4248;48.196;10.924;2023-12-22T14:10:15;0.90;;;0.60;;
8421;SDS011;4248;48.196;10.924;2023-12-22T14:12:41;4.17;;;1.57;;
8421;SDS011;4248;48.196;10.924;2023-12-22T14:15:07;3.33;;;0.90;;
8421;SDS011;4248;48.196;10.924;2023-12-22T14:17:36;3.40;;;1.10;;
8421;SDS011;4248;48.196;10.924;2023-12-22T14:20:02;2.03;;;0.93;;
8421;SDS011;4248;48.196;10.924;2023-12-22T14:22:30;3.23;;;0.87;;
8421;SDS011;4248;48.196;10.924;2023-12-22T14:24:55;4.20;;;0.80;;
8421;SDS011;4248;48.196;10.924;2023-12-22T14:27:23;1.63;;;0.60;;
8421;SDS011;4248;48.196;10.924;2023-12-22T14:29:49;3.00;;;1.60;;
8421;SDS011;4248;48.196;10.924;2023-12-22T14:32:15;3.27;;;1.30;;
8421;SDS011;4248;48.196;10.924;2023-12-22T14:34:43;5.00;;;1.00;;
8421;SDS011;4248;48.196;10.924;2023-12-22T14:37:12;2.87;;;0.90;;
8421;SDS011;4248;48.196;10.924;2023-12-22T14:39:38;2.37;;;0.97;;
8421;SDS011;4248;48.196;10.924;2023-12-22T14:42:04;1.90;;;1.00;;
8421;SDS011;4248;48.196;10.924;2023-12-22T14:44:30;1.87;;;0.90;;
8421;SDS011;4248;48.196;10.924;2023-12-22T14:46:56;2.63;;;1.30;;
8421;SDS011;4248;48.196;10.924;2023-12-22T14:49:21;3.57;;;0.93;;
8421;SDS011;4248;48.196;10.924;2023-12-22T14:51:47;3.03;;;1.00;;
8421;SDS011;4248;48.196;10.924;2023-12-22T14:54:17;2.23;;;0.80;;
8421;SDS011;4248;48.196;10.924;2023-12-22T14:56:43;2.23;;;0.90;;
8421;SDS011;4248;48.196;10.924;2023-12-22T14:59:09;3.90;;;0.97;;
8421;SDS011;4248;48.196;10.924;2023-12-22T15:01:35;1.40;;;0.90;;
8421;SDS011;4248;48.196;10.924;2023-12-22T15:04:01;4.03;;;1.07;;
8421;SDS011;4248;48.196;10.924;2023-12-22T15:06:28;2.73;;;1.03;;
8421;SDS011;4248;48.196;10.924;2023-12-22T15:08:54;1.20;;;0.80;;
8421;SDS011;4248;48.196;10.924;2023-12-22T15:11:20;1.43;;;0.80;;
8421;SDS011;4248;48.196;10.924;2023-12-22T15:13:45;2.00;;;0.70;;
8421;SDS011;4248;48.196;10.924;2023-12-22T15:16:11;2.63;;;0.80;;